Airfield :
LOGIN :

Register | Disclaimer

   EN    FR    IT 

 










Legend :    VFR   Marginal VFR   IFR   Intensive IFR   Very Intensive IFR
Visi :
Ceiling :
>= 8 km
>= 3000ft
5 to 8 km
1000 to 3000 ft
1500m to 5 km
500 to 1000 ft
800 to 1500m
200 to 500 ft
< 800m
< 200 ft
Symbols :   Thunderstorms  Fog  Heavy snow  Heavy precipitations  Wind > 20 kt
SIGMETs :     Misc.  Thunderstorms  Icing  Turbulence  Mountain Waves  Volcanic Ashes







- Airport Elevation : 526 ft
- IATA code : LTN
- Download approach charts


EGGW - London Luton

CURRENT METAR :
  • 171150Z 17005KT 110V230 CAVOK 24/10 Q1014

EXPIRED METARs :
  • 171120Z AUTO 17007KT 090V220 9999 NCD 24/10 Q1014
  • 171050Z AUTO 19006KT 130V250 9999 NCD 24/10 Q1014
  • 171020Z AUTO 19006KT 140V270 9999 NCD 24/10 Q1014
  • 170950Z AUTO 20007KT 150V230 9999 NCD 23/11 Q1015
  • 170920Z 18007KT 140V220 CAVOK 23/12 Q1015

TAF TAF EGGW
Valid from the 17 at 12:00 until the 18 at 12:00 UTC


171104Z 1712/1812 20008KT 9999 FEW045
TEMPO 1800/1808 8000 -RA BKN014
PROB30
TEMPO 1800/1808 4000 RADZ BKN008
PROB40
TEMPO 1808/1812 7000 SHRA BKN008
ATIS : +44 1582 395 204
No reported NOTAMs for that airfield.



MET'MAP, your aeronautical weather chart ! - Copyright ORBIFLY December 2007 - Disclaimer

ORBIFLY MET'MAP TEAM :

Programming & Development : Alexandra Zaïnal
Concept & Development : Baudouin d'Aumeries
Co-Development & Prog : Marc-Olivier Méhu
Technical & hardware support : Manuel Goepfert

Contact : metmap@orbifly.com




SOURCES & CREDITS :

   NOAA